sensor_id;sensor_type;location;lat;lon;timestamp;pressure;altitude;pressure_sealevel;temperature;humidity
46129;BME280;31860;45.186;5.790;2024-02-16T00:01:37;99236.72;;;12.42;100.00
46129;BME280;31860;45.186;5.790;2024-02-16T00:04:02;99229.78;;;12.41;100.00
46129;BME280;31860;45.186;5.790;2024-02-16T00:06:28;99235.00;;;12.41;100.00
46129;BME280;31860;45.186;5.790;2024-02-16T00:08:53;99235.88;;;12.39;100.00
46129;BME280;31860;45.186;5.790;2024-02-16T00:11:18;99238.50;;;12.39;100.00
46129;BME280;31860;45.186;5.790;2024-02-16T00:13:44;99246.38;;;12.35;100.00
46129;BME280;31860;45.186;5.790;2024-02-16T00:16:09;99250.75;;;12.34;100.00
46129;BME280;31860;45.186;5.790;2024-02-16T00:18:34;99248.13;;;12.34;100.00
46129;BME280;31860;45.186;5.790;2024-02-16T00:21:00;99251.66;;;12.30;100.00
46129;BME280;31860;45.186;5.790;2024-02-16T00:23:26;99235.97;;;12.26;100.00
46129;BME280;31860;45.186;5.790;2024-02-16T00:25:52;99240.38;;;12.21;100.00
46129;BME280;31860;45.186;5.790;2024-02-16T00:28:18;99241.28;;;12.14;100.00
46129;BME280;31860;45.186;5.790;2024-02-16T00:30:43;99242.19;;;12.10;100.00
46129;BME280;31860;45.186;5.790;2024-02-16T00:33:09;99248.31;;;12.04;100.00
46129;BME280;31860;45.186;5.790;2024-02-16T00:35:34;99243.94;;;12.06;100.00
46129;BME280;31860;45.186;5.790;2024-02-16T00:38:00;99253.50;;;12.09;100.00
46129;BME280;31860;45.186;5.790;2024-02-16T00:40:25;99243.03;;;12.12;100.00
46129;BME280;31860;45.186;5.790;2024-02-16T00:42:51;99248.25;;;12.13;100.00
46129;BME280;31860;45.186;5.790;2024-02-16T00:45:17;99247.41;;;12.11;100.00
46129;BME280;31860;45.186;5.790;2024-02-16T00:47:42;99258.75;;;12.10;100.00
46129;BME280;31860;45.186;5.790;2024-02-16T00:50:10;99259.63;;;12.08;100.00
46129;BME280;31860;45.186;5.790;2024-02-16T00:52:36;99257.00;;;12.05;100.00
46129;BME280;31860;45.186;5.790;2024-02-16T00:55:02;99263.16;;;12.02;100.00
46129;BME280;31860;45.186;5.790;2024-02-16T00:57:29;99260.56;;;12.01;100.00
46129;BME280;31860;45.186;5.790;2024-02-16T00:59:54;99264.03;;;11.98;100.00
46129;BME280;31860;45.186;5.790;2024-02-16T01:02:20;99255.31;;;11.99;100.00
46129;BME280;31860;45.186;5.790;2024-02-16T01:04:45;99268.41;;;12.01;100.00
46129;BME280;31860;45.186;5.790;2024-02-16T01:07:12;99264.00;;;12.01;100.00
46129;BME280;31860;45.186;5.790;2024-02-16T01:09:37;99257.03;;;12.03;100.00
46129;BME280;31860;45.186;5.790;2024-02-16T01:12:02;99259.69;;;12.00;100.00
46129;BME280;31860;45.186;5.790;2024-02-16T01:14:28;99258.78;;;12.00;100.00
46129;BME280;31860;45.186;5.790;2024-02-16T01:16:53;99275.38;;;12.02;100.00
46129;BME280;31860;45.186;5.790;2024-02-16T01:19:18;99271.00;;;12.04;100.00
46129;BME280;31860;45.186;5.790;2024-02-16T01:21:44;99263.13;;;12.08;100.00
46129;BME280;31860;45.186;5.790;2024-02-16T01:24:12;99267.47;;;12.09;100.00
46129;BME280;31860;45.186;5.790;2024-02-16T01:26:38;99269.22;;;12.09;100.00
46129;BME280;31860;45.186;5.790;2024-02-16T01:29:03;99264.88;;;12.08;100.00
46129;BME280;31860;45.186;5.790;2024-02-16T01:31:29;99269.25;;;12.06;100.00
46129;BME280;31860;45.186;5.790;2024-02-16T01:33:54;99275.34;;;12.08;100.00
46129;BME280;31860;45.186;5.790;2024-02-16T01:36:20;99264.84;;;12.09;100.00
46129;BME280;31860;45.186;5.790;2024-02-16T01:38:45;99262.22;;;12.11;100.00
46129;BME280;31860;45.186;5.790;2024-02-16T01:41:10;99269.22;;;12.12;100.00
46129;BME280;31860;45.186;5.790;2024-02-16T01:43:37;99271.84;;;12.10;100.00
46129;BME280;31860;45.186;5.790;2024-02-16T01:46:03;99269.25;;;12.06;100.00
46129;BME280;31860;45.186;5.790;2024-02-16T01:48:29;99271.00;;;12.04;100.00
46129;BME280;31860;45.186;5.790;2024-02-16T01:50:55;99281.47;;;12.04;100.00
46129;BME280;31860;45.186;5.790;2024-02-16T01:53:21;99272.75;;;12.02;100.00
46129;BME280;31860;45.186;5.790;2024-02-16T01:55:47;99271.88;;;12.01;100.00
46129;BME280;31860;45.186;5.790;2024-02-16T01:58:13;99271.03;;;12.01;100.00
46129;BME280;31860;45.186;5.790;2024-02-16T02:00:39;99277.09;;;12.01;100.00
46129;BME280;31860;45.186;5.790;2024-02-16T02:03:06;99278.88;;;12.02;100.00
46129;BME280;31860;45.186;5.790;2024-02-16T02:05:31;99278.00;;;12.02;100.00
46129;BME280;31860;45.186;5.790;2024-02-16T02:07:57;99273.66;;;12.01;100.00
46129;BME280;31860;45.186;5.790;2024-02-16T02:10:22;99276.25;;;12.01;100.00
46129;BME280;31860;45.186;5.790;2024-02-16T02:12:47;99266.66;;;12.00;100.00
46129;BME280;31860;45.186;5.790;2024-02-16T02:15:13;99264.03;;;11.98;100.00
46129;BME280;31860;45.186;5.790;2024-02-16T02:17:38;99266.69;;;11.97;100.00
46129;BME280;31860;45.186;5.790;2024-02-16T02:20:04;99265.78;;;11.98;100.00
46129;BME280;31860;45.186;5.790;2024-02-16T02:22:33;99260.56;;;11.95;100.00
46129;BME280;31860;45.186;5.790;2024-02-16T02:24:58;99260.56;;;11.92;100.00
46129;BME280;31860;45.186;5.790;2024-02-16T02:27:23;99266.72;;;11.89;100.00
46129;BME280;31860;45.186;5.790;2024-02-16T02:29:49;99258.00;;;11.87;100.00
46129;BME280;31860;45.186;5.790;2024-02-16T02:32:15;99264.09;;;11.88;100.00
46129;BME280;31860;45.186;5.790;2024-02-16T02:34:40;99264.09;;;11.89;100.00
46129;BME280;31860;45.186;5.790;2024-02-16T02:37:06;99256.25;;;11.85;100.00
46129;BME280;31860;45.186;5.790;2024-02-16T02:39:32;99252.78;;;11.81;100.00
46129;BME280;31860;45.186;5.790;2024-02-16T02:41:58;99257.16;;;11.79;100.00
46129;BME280;31860;45.186;5.790;2024-02-16T02:44:26;99255.41;;;11.80;100.00
46129;BME280;31860;45.186;5.790;2024-02-16T02:46:53;99251.91;;;11.79;100.00
46129;BME280;31860;45.186;5.790;2024-02-16T02:49:18;99254.53;;;11.79;100.00
46129;BME280;31860;45.186;5.790;2024-02-16T02:51:44;99257.16;;;11.79;100.00
46129;BME280;31860;45.186;5.790;2024-02-16T02:54:09;99252.81;;;11.78;100.00
46129;BME280;31860;45.186;5.790;2024-02-16T02:56:35;99253.66;;;11.79;100.00
46129;BME280;31860;45.186;5.790;2024-02-16T02:59:00;99251.91;;;11.79;100.00
46129;BME280;31860;45.186;5.790;2024-02-16T03:01:25;99253.66;;;11.79;100.00
46129;BME280;31860;45.186;5.790;2024-02-16T03:03:51;99253.66;;;11.79;100.00
46129;BME280;31860;45.186;5.790;2024-02-16T03:06:20;99255.41;;;11.77;100.00
46129;BME280;31860;45.186;5.790;2024-02-16T03:08:45;99255.41;;;11.75;100.00
46129;BME280;31860;45.186;5.790;2024-02-16T03:11:11;99252.78;;;11.75;100.00
46129;BME280;31860;45.186;5.790;2024-02-16T03:13:37;99250.19;;;11.75;100.00
46129;BME280;31860;45.186;5.790;2024-02-16T03:16:02;99254.53;;;11.78;100.00
46129;BME280;31860;45.186;5.790;2024-02-16T03:18:31;99249.31;;;11.78;100.00
46129;BME280;31860;45.186;5.790;2024-02-16T03:20:57;99253.66;;;11.79;100.00
46129;BME280;31860;45.186;5.790;2024-02-16T03:23:23;99257.13;;;11.81;100.00
46129;BME280;31860;45.186;5.790;2024-02-16T03:25:48;99255.41;;;11.80;100.00
46129;BME280;31860;45.186;5.790;2024-02-16T03:28:14;99258.03;;;11.78;100.00
46129;BME280;31860;45.186;5.790;2024-02-16T03:30:41;99259.78;;;11.78;100.00
46129;BME280;31860;45.186;5.790;2024-02-16T03:33:07;99265.88;;;11.78;100.00
46129;BME280;31860;45.186;5.790;2024-02-16T03:35:33;99261.53;;;11.76;100.00
46129;BME280;31860;45.186;5.790;2024-02-16T03:37:59;99260.66;;;11.75;100.00
46129;BME280;31860;45.186;5.790;2024-02-16T03:40:24;99255.44;;;11.74;100.00
46129;BME280;31860;45.186;5.790;2024-02-16T03:42:50;99257.16;;;11.73;100.00
46129;BME280;31860;45.186;5.790;2024-02-16T03:45:16;99260.66;;;11.72;100.00
46129;BME280;31860;45.186;5.790;2024-02-16T03:47:41;99253.69;;;11.71;100.00
46129;BME280;31860;45.186;5.790;2024-02-16T03:50:07;99252.84;;;11.71;100.00
46129;BME280;31860;45.186;5.790;2024-02-16T03:52:32;99253.69;;;11.70;100.00
46129;BME280;31860;45.186;5.790;2024-02-16T03:54:58;99246.72;;;11.69;100.00
46129;BME280;31860;45.186;5.790;2024-02-16T03:57:24;99252.81;;;11.68;100.00
46129;BME280;31860;45.186;5.790;2024-02-16T03:59:50;99254.59;;;11.69;100.00
46129;BME280;31860;45.186;5.790;2024-02-16T04:02:15;99256.34;;;11.67;100.00
46129;BME280;31860;45.186;5.790;2024-02-16T04:04:41;99259.78;;;11.67;100.00
46129;BME280;31860;45.186;5.790;2024-02-16T04:07:06;99260.69;;;11.66;100.00
46129;BME280;31860;45.186;5.790;2024-02-16T04:09:33;99263.28;;;11.65;100.00
46129;BME280;31860;45.186;5.790;2024-02-16T04:11:59;99263.28;;;11.65;100.00
46129;BME280;31860;45.186;5.790;2024-02-16T04:14:25;99261.53;;;11.64;100.00
46129;BME280;31860;45.186;5.790;2024-02-16T04:16:53;99262.41;;;11.61;100.00
46129;BME280;31860;45.186;5.790;2024-02-16T04:19:18;99268.53;;;11.59;100.00
46129;BME280;31860;45.186;5.790;2024-02-16T04:21:44;99266.78;;;11.56;100.00
46129;BME280;31860;45.186;5.790;2024-02-16T04:24:09;99284.25;;;11.56;100.00
46129;BME280;31860;45.186;5.790;2024-02-16T04:26:35;99281.59;;;11.54;100.00
46129;BME280;31860;45.186;5.790;2024-02-16T04:29:00;99287.72;;;11.55;100.00
46129;BME280;31860;45.186;5.790;2024-02-16T04:31:26;99289.44;;;11.54;100.00
46129;BME280;31860;45.186;5.790;2024-02-16T04:33:51;99288.59;;;11.57;100.00
46129;BME280;31860;45.186;5.790;2024-02-16T04:36:18;99297.31;;;11.57;100.00
46129;BME280;31860;45.186;5.790;2024-02-16T04:38:43;99295.56;;;11.58;100.00
46129;BME280;31860;45.186;5.790;2024-02-16T04:41:09;99297.31;;;11.57;100.00
46129;BME280;31860;45.186;5.790;2024-02-16T04:43:34;99300.81;;;11.58;100.00
46129;BME280;31860;45.186;5.790;2024-02-16T04:46:00;99299.03;;;11.60;100.00
46129;BME280;31860;45.186;5.790;2024-02-16T04:48:25;99303.41;;;11.59;100.00
46129;BME280;31860;45.186;5.790;2024-02-16T04:50:51;99293.81;;;11.55;100.00
46129;BME280;31860;45.186;5.790;2024-02-16T04:53:16;99301.66;;;11.57;100.00
46129;BME280;31860;45.186;5.790;2024-02-16T04:55:42;99295.56;;;11.55;100.00
46129;BME280;31860;45.186;5.790;2024-02-16T04:58:07;99303.44;;;11.52;100.00
46129;BME280;31860;45.186;5.790;2024-02-16T05:00:36;99304.28;;;11.49;100.00
46129;BME280;31860;45.186;5.790;2024-02-16T05:03:02;99304.28;;;11.49;100.00
46129;BME280;31860;45.186;5.790;2024-02-16T05:05:28;99308.66;;;11.50;100.00
46129;BME280;31860;45.186;5.790;2024-02-16T05:07:53;99304.31;;;11.48;100.00
46129;BME280;31860;45.186;5.790;2024-02-16T05:10:18;99304.28;;;11.44;100.00
46129;BME280;31860;45.186;5.790;2024-02-16T05:12:45;99317.38;;;11.43;100.00
46129;BME280;31860;45.186;5.790;2024-02-16T05:15:10;99310.41;;;11.39;100.00
46129;BME280;31860;45.186;5.790;2024-02-16T05:17:38;99309.53;;;11.41;100.00
46129;BME280;31860;45.186;5.790;2024-02-16T05:20:10;99316.53;;;11.42;100.00
46129;BME280;31860;45.186;5.790;2024-02-16T05:22:43;99311.28;;;11.42;100.00
46129;BME280;31860;45.186;5.790;2024-02-16T05:25:11;99310.41;;;11.45;100.00
46129;BME280;31860;45.186;5.790;2024-02-16T05:27:36;99316.50;;;11.45;100.00
46129;BME280;31860;45.186;5.790;2024-02-16T05:30:03;99312.16;;;11.46;100.00
46129;BME280;31860;45.186;5.790;2024-02-16T05:32:29;99318.25;;;11.48;100.00
46129;BME280;31860;45.186;5.790;2024-02-16T05:34:54;99324.34;;;11.47;100.00
46129;BME280;31860;45.186;5.790;2024-02-16T05:37:20;99325.22;;;11.48;100.00
46129;BME280;31860;45.186;5.790;2024-02-16T05:39:47;99323.47;;;11.46;100.00
46129;BME280;31860;45.186;5.790;2024-02-16T05:42:33;99318.25;;;11.45;100.00
46129;BME280;31860;45.186;5.790;2024-02-16T05:44:59;99320.00;;;11.46;100.00
46129;BME280;31860;45.186;5.790;2024-02-16T05:47:24;99325.22;;;11.46;100.00
46129;BME280;31860;45.186;5.790;2024-02-16T05:49:49;99316.50;;;11.47;100.00
46129;BME280;31860;45.186;5.790;2024-02-16T05:52:15;99317.38;;;11.44;100.00
46129;BME280;31860;45.186;5.790;2024-02-16T05:54:47;99324.34;;;11.45;100.00
46129;BME280;31860;45.186;5.790;2024-02-16T05:57:16;99325.22;;;11.43;100.00
46129;BME280;31860;45.186;5.790;2024-02-16T05:59:42;99329.59;;;11.39;100.00
46129;BME280;31860;45.186;5.790;2024-02-16T06:02:07;99327.84;;;11.38;100.00
46129;BME280;31860;45.186;5.790;2024-02-16T06:04:33;99330.47;;;11.41;100.00
46129;BME280;31860;45.186;5.790;2024-02-16T06:06:58;99334.81;;;11.38;100.00
46129;BME280;31860;45.186;5.790;2024-02-16T06:09:24;99326.13;;;11.40;100.00
46129;BME280;31860;45.186;5.790;2024-02-16T06:11:49;99328.72;;;11.42;100.00
46129;BME280;31860;45.186;5.790;2024-02-16T06:14:14;99331.34;;;11.42;100.00
46129;BME280;31860;45.186;5.790;2024-02-16T06:16:40;99333.94;;;11.43;100.00
46129;BME280;31860;45.186;5.790;2024-02-16T06:19:07;99333.09;;;11.46;100.00
46129;BME280;31860;45.186;5.790;2024-02-16T06:21:34;99330.44;;;11.44;100.00
46129;BME280;31860;45.186;5.790;2024-02-16T06:23:59;99332.22;;;11.42;100.00
46129;BME280;31860;45.186;5.790;2024-02-16T06:26:24;99332.19;;;11.41;100.00
46129;BME280;31860;45.186;5.790;2024-02-16T06:28:50;99339.16;;;11.39;100.00
46129;BME280;31860;45.186;5.790;2024-02-16T06:31:15;99337.44;;;11.38;100.00
46129;BME280;31860;45.186;5.790;2024-02-16T06:33:40;99340.94;;;11.38;100.00
46129;BME280;31860;45.186;5.790;2024-02-16T06:36:06;99340.06;;;11.38;100.00
46129;BME280;31860;45.186;5.790;2024-02-16T06:38:32;99352.25;;;11.45;100.00
46129;BME280;31860;45.186;5.790;2024-02-16T06:40:57;99358.34;;;11.45;100.00
46129;BME280;31860;45.186;5.790;2024-02-16T06:43:23;99355.72;;;11.47;100.00
46129;BME280;31860;45.186;5.790;2024-02-16T06:45:48;99359.22;;;11.49;100.00
46129;BME280;31860;45.186;5.790;2024-02-16T06:48:13;99364.44;;;11.49;100.00
46129;BME280;31860;45.186;5.790;2024-02-16T06:50:38;99364.44;;;11.49;100.00
46129;BME280;31860;45.186;5.790;2024-02-16T06:53:04;99372.28;;;11.49;100.00
46129;BME280;31860;45.186;5.790;2024-02-16T06:55:29;99374.91;;;11.48;100.00
46129;BME280;31860;45.186;5.790;2024-02-16T06:57:54;99375.78;;;11.46;100.00
46129;BME280;31860;45.186;5.790;2024-02-16T07:00:20;99383.63;;;11.45;100.00
46129;BME280;31860;45.186;5.790;2024-02-16T07:02:47;99383.63;;;11.43;100.00
46129;BME280;31860;45.186;5.790;2024-02-16T07:05:12;99386.25;;;11.43;100.00
46129;BME280;31860;45.186;5.790;2024-02-16T07:07:38;99396.72;;;11.43;100.00
46129;BME280;31860;45.186;5.790;2024-02-16T07:10:03;99398.44;;;11.43;100.00
46129;BME280;31860;45.186;5.790;2024-02-16T07:12:30;99400.19;;;11.41;100.00
46129;BME280;31860;45.186;5.790;2024-02-16T07:14:55;99403.69;;;11.41;100.00
46129;BME280;31860;45.186;5.790;2024-02-16T07:17:21;99402.81;;;11.39;100.00
46129;BME280;31860;45.186;5.790;2024-02-16T07:19:46;99411.53;;;11.43;100.00
46129;BME280;31860;45.186;5.790;2024-02-16T07:22:11;99415.00;;;11.45;100.00
46129;BME280;31860;45.186;5.790;2024-02-16T07:24:37;99415.91;;;11.45;100.00
46129;BME280;31860;45.186;5.790;2024-02-16T07:27:03;99413.28;;;11.45;100.00
46129;BME280;31860;45.186;5.790;2024-02-16T07:29:28;99418.53;;;11.50;100.00
46129;BME280;31860;45.186;5.790;2024-02-16T07:31:54;99421.13;;;11.52;100.00
46129;BME280;31860;45.186;5.790;2024-02-16T07:34:21;99427.25;;;11.54;100.00
46129;BME280;31860;45.186;5.790;2024-02-16T07:36:46;99430.72;;;11.56;100.00
46129;BME280;31860;45.186;5.790;2024-02-16T07:39:11;99429.00;;;11.58;100.00
46129;BME280;31860;45.186;5.790;2024-02-16T07:41:37;99429.81;;;11.60;100.00
46129;BME280;31860;45.186;5.790;2024-02-16T07:44:03;99432.47;;;11.63;100.00
46129;BME280;31860;45.186;5.790;2024-02-16T07:46:29;99433.34;;;11.63;100.00
46129;BME280;31860;45.186;5.790;2024-02-16T07:48:54;99435.09;;;11.66;100.00
46129;BME280;31860;45.186;5.790;2024-02-16T07:51:20;99438.59;;;11.68;100.00
46129;BME280;31860;45.186;5.790;2024-02-16T07:53:45;99441.22;;;11.71;100.00
46129;BME280;31860;45.186;5.790;2024-02-16T07:56:11;99439.47;;;11.73;100.00
46129;BME280;31860;45.186;5.790;2024-02-16T07:58:37;99445.56;;;11.76;100.00
46129;BME280;31860;45.186;5.790;2024-02-16T08:01:02;99447.28;;;11.79;100.00
46129;BME280;31860;45.186;5.790;2024-02-16T08:03:28;99445.56;;;11.81;100.00
46129;BME280;31860;45.186;5.790;2024-02-16T08:05:55;99445.56;;;11.84;100.00
46129;BME280;31860;45.186;5.790;2024-02-16T08:08:22;99451.66;;;11.89;100.00
46129;BME280;31860;45.186;5.790;2024-02-16T08:10:48;99445.56;;;11.93;100.00
46129;BME280;31860;45.186;5.790;2024-02-16T08:13:13;99449.03;;;11.96;100.00
46129;BME280;31860;45.186;5.790;2024-02-16T08:15:38;99449.91;;;11.98;100.00
46129;BME280;31860;45.186;5.790;2024-02-16T08:18:04;99444.66;;;12.01;100.00
46129;BME280;31860;45.186;5.790;2024-02-16T08:20:30;99456.88;;;12.01;100.00
46129;BME280;31860;45.186;5.790;2024-02-16T08:22:56;99448.16;;;12.00;100.00
46129;BME280;31860;45.186;5.790;2024-02-16T08:25:21;99456.88;;;12.02;100.00
46129;BME280;31860;45.186;5.790;2024-02-16T08:27:48;99456.88;;;12.05;100.00
46129;BME280;31860;45.186;5.790;2024-02-16T08:30:14;99462.97;;;12.09;100.00
46129;BME280;31860;45.186;5.790;2024-02-16T08:32:40;99455.97;;;12.11;100.00
46129;BME280;31860;45.186;5.790;2024-02-16T08:35:06;99460.31;;;12.16;100.00
46129;BME280;31860;45.186;5.790;2024-02-16T08:37:31;99459.44;;;12.22;100.00
46129;BME280;31860;45.186;5.790;2024-02-16T08:39:57;99451.59;;;12.25;100.00
46129;BME280;31860;45.186;5.790;2024-02-16T08:42:22;99457.69;;;12.30;100.00
46129;BME280;31860;45.186;5.790;2024-02-16T08:44:48;99457.66;;;12.36;100.00
46129;BME280;31860;45.186;5.790;2024-02-16T08:47:14;99459.41;;;12.38;100.00
46129;BME280;31860;45.186;5.790;2024-02-16T08:49:41;99455.03;;;12.42;100.00
46129;BME280;31860;45.186;5.790;2024-02-16T08:52:07;99455.03;;;12.44;100.00
46129;BME280;31860;45.186;5.790;2024-02-16T08:54:33;99461.13;;;12.43;100.00
46129;BME280;31860;45.186;5.790;2024-02-16T08:56:59;99470.72;;;12.45;100.00
46129;BME280;31860;45.186;5.790;2024-02-16T08:59:24;99468.09;;;12.47;100.00
46129;BME280;31860;45.186;5.790;2024-02-16T09:01:50;99467.22;;;12.49;100.00
46129;BME280;31860;45.186;5.790;2024-02-16T09:04:15;99477.69;;;12.52;100.00
46129;BME280;31860;45.186;5.790;2024-02-16T09:06:41;99472.47;;;12.55;100.00
46129;BME280;31860;45.186;5.790;2024-02-16T09:09:07;99478.56;;;12.59;100.00
46129;BME280;31860;45.186;5.790;2024-02-16T09:11:33;99480.28;;;12.60;100.00
46129;BME280;31860;45.186;5.790;2024-02-16T09:13:59;99482.91;;;12.63;100.00
46129;BME280;31860;45.186;5.790;2024-02-16T09:16:24;99482.03;;;12.67;100.00
46129;BME280;31860;45.186;5.790;2024-02-16T09:18:49;99484.63;;;12.71;100.00
46129;BME280;31860;45.186;5.790;2024-02-16T09:21:15;99483.72;;;12.77;100.00
46129;BME280;31860;45.186;5.790;2024-02-16T09:23:40;99488.94;;;12.81;100.00
46129;BME280;31860;45.186;5.790;2024-02-16T09:26:06;99488.06;;;12.84;100.00
46129;BME280;31860;45.186;5.790;2024-02-16T09:28:38;99489.78;;;12.86;100.00
46129;BME280;31860;45.186;5.790;2024-02-16T09:31:04;99496.78;;;12.89;100.00
46129;BME280;31860;45.186;5.790;2024-02-16T09:33:29;99495.03;;;12.91;100.00
46129;BME280;31860;45.186;5.790;2024-02-16T09:35:54;99496.78;;;12.90;100.00
46129;BME280;31860;45.186;5.790;2024-02-16T09:38:20;99501.16;;;12.91;100.00
46129;BME280;31860;45.186;5.790;2024-02-16T09:40:45;99494.13;;;12.96;100.00
46129;BME280;31860;45.186;5.790;2024-02-16T09:43:24;99487.09;;;13.01;100.00
46129;BME280;31860;45.186;5.790;2024-02-16T09:45:58;99489.75;;;13.04;100.00
46129;BME280;31860;45.186;5.790;2024-02-16T09:48:27;99490.59;;;13.09;100.00
46129;BME280;31860;45.186;5.790;2024-02-16T09:50:57;99498.44;;;13.14;100.00
46129;BME280;31860;45.186;5.790;2024-02-16T09:53:25;99504.53;;;13.17;100.00
46129;BME280;31860;45.186;5.790;2024-02-16T09:55:51;99509.75;;;13.22;100.00
46129;BME280;31860;45.186;5.790;2024-02-16T09:58:20;99507.97;;;13.25;100.00
46129;BME280;31860;45.186;5.790;2024-02-16T10:00:52;99507.06;;;13.29;100.00
46129;BME280;31860;45.186;5.790;2024-02-16T10:03:26;99510.56;;;13.33;100.00
46129;BME280;31860;45.186;5.790;2024-02-16T10:05:52;99515.78;;;13.38;100.00
46129;BME280;31860;45.186;5.790;2024-02-16T10:08:18;99508.78;;;13.40;100.00
46129;BME280;31860;45.186;5.790;2024-02-16T10:10:44;99508.75;;;13.44;100.00
46129;BME280;31860;45.186;5.790;2024-02-16T10:13:09;99520.97;;;13.50;100.00
46129;BME280;31860;45.186;5.790;2024-02-16T10:15:36;99517.44;;;13.54;100.00
46129;BME280;31860;45.186;5.790;2024-02-16T10:18:06;99517.38;;;13.60;100.00
46129;BME280;31860;45.186;5.790;2024-02-16T10:20:34;99518.25;;;13.65;100.00
46129;BME280;31860;45.186;5.790;2024-02-16T10:23:11;99519.06;;;13.70;100.00
46129;BME280;31860;45.186;5.790;2024-02-16T10:25:40;99522.53;;;13.76;100.00
46129;BME280;31860;45.186;5.790;2024-02-16T10:28:09;99515.47;;;13.81;100.00
46129;BME280;31860;45.186;5.790;2024-02-16T10:30:37;99525.06;;;13.87;100.00
46129;BME280;31860;45.186;5.790;2024-02-16T10:33:07;99522.41;;;13.91;100.00
46129;BME280;31860;45.186;5.790;2024-02-16T10:35:34;99518.88;;;13.97;100.00
46129;BME280;31860;45.186;5.790;2024-02-16T10:38:01;99520.56;;;14.02;100.00
46129;BME280;31860;45.186;5.790;2024-02-16T10:40:30;99517.84;;;14.08;100.00
46129;BME280;31860;45.186;5.790;2024-02-16T10:43:01;99519.56;;;14.12;100.00
46129;BME280;31860;45.186;5.790;2024-02-16T10:45:29;99516.94;;;14.15;100.00
46129;BME280;31860;45.186;5.790;2024-02-16T10:47:55;99521.28;;;14.19;100.00
46129;BME280;31860;45.186;5.790;2024-02-16T10:50:20;99515.97;;;14.24;100.00
46129;BME280;31860;45.186;5.790;2024-02-16T10:52:46;99524.72;;;14.31;100.00
46129;BME280;31860;45.186;5.790;2024-02-16T10:55:13;99519.41;;;14.37;100.00
46129;BME280;31860;45.186;5.790;2024-02-16T10:57:41;99527.19;;;14.43;100.00
46129;BME280;31860;45.186;5.790;2024-02-16T11:00:10;99519.28;;;14.47;100.00
46129;BME280;31860;45.186;5.790;2024-02-16T11:02:53;99515.72;;;14.53;100.00
46129;BME280;31860;45.186;5.790;2024-02-16T11:05:31;99516.53;;;14.58;100.00
46129;BME280;31860;45.186;5.790;2024-02-16T11:08:01;99507.72;;;14.62;100.00
46129;BME280;31860;45.186;5.790;2024-02-16T11:10:27;99509.38;;;14.69;100.00
46129;BME280;31860;45.186;5.790;2024-02-16T11:12:53;99508.44;;;14.77;100.00
46129;BME280;31860;45.186;5.790;2024-02-16T11:15:31;99501.31;;;14.85;100.00
46129;BME280;31860;45.186;5.790;2024-02-16T11:17:57;99501.19;;;14.96;100.00
46129;BME280;31860;45.186;5.790;2024-02-16T11:20:26;99504.56;;;15.05;100.00
46129;BME280;31860;45.186;5.790;2024-02-16T11:22:52;99497.41;;;15.16;100.00
46129;BME280;31860;45.186;5.790;2024-02-16T11:25:18;99501.59;;;15.30;100.00
46129;BME280;31860;45.186;5.790;2024-02-16T11:27:44;99503.19;;;15.43;100.00
46129;BME280;31860;45.186;5.790;2024-02-16T11:30:10;99493.38;;;15.55;100.00
46129;BME280;31860;45.186;5.790;2024-02-16T11:32:36;99490.59;;;15.64;100.00
46129;BME280;31860;45.186;5.790;2024-02-16T11:35:06;99490.38;;;15.76;100.00
46129;BME280;31860;45.186;5.790;2024-02-16T11:37:32;99484.94;;;15.87;100.00
46129;BME280;31860;45.186;5.790;2024-02-16T11:39:58;99483.91;;;15.97;100.00
46129;BME280;31860;45.186;5.790;2024-02-16T11:42:23;99481.97;;;16.06;100.00
46129;BME280;31860;45.186;5.790;2024-02-16T11:44:53;99480.03;;;16.16;100.00
46129;BME280;31860;45.186;5.790;2024-02-16T11:47:20;99475.47;;;16.26;100.00
46129;BME280;31860;45.186;5.790;2024-02-16T11:50:05;99477.13;;;16.33;100.00
46129;BME280;31860;45.186;5.790;2024-02-16T11:52:32;99469.06;;;16.39;100.00
46129;BME280;31860;45.186;5.790;2024-02-16T11:54:57;99471.56;;;16.46;100.00
46129;BME280;31860;45.186;5.790;2024-02-16T11:57:26;99468.00;;;16.50;100.00
46129;BME280;31860;45.186;5.790;2024-02-16T11:59:53;99461.72;;;16.57;100.00
46129;BME280;31860;45.186;5.790;2024-02-16T12:02:19;99462.38;;;16.67;100.00
46129;BME280;31860;45.186;5.790;2024-02-16T12:04:46;99457.78;;;16.76;100.00
46129;BME280;31860;45.186;5.790;2024-02-16T12:07:12;99463.75;;;16.87;100.00
46129;BME280;31860;45.186;5.790;2024-02-16T12:09:39;99458.28;;;16.96;100.00
46129;BME280;31860;45.186;5.790;2024-02-16T12:12:05;99459.81;;;17.05;100.00
46129;BME280;31860;45.186;5.790;2024-02-16T12:14:31;99457.97;;;17.10;100.00
46129;BME280;31860;45.186;5.790;2024-02-16T12:16:57;99448.22;;;17.14;100.00
46129;BME280;31860;45.186;5.790;2024-02-16T12:19:23;99452.47;;;17.19;100.00
46129;BME280;31860;45.186;5.790;2024-02-16T12:21:50;99446.09;;;17.28;100.00
46129;BME280;31860;45.186;5.790;2024-02-16T12:24:16;99451.25;;;17.34;100.00
46129;BME280;31860;45.186;5.790;2024-02-16T12:26:42;99440.53;;;17.41;100.00
46129;BME280;31860;45.186;5.790;2024-02-16T12:29:07;99442.94;;;17.52;100.00
46129;BME280;31860;45.186;5.790;2024-02-16T12:31:37;99445.28;;;17.64;100.00
46129;BME280;31860;45.186;5.790;2024-02-16T12:34:03;99439.72;;;17.74;100.00
46129;BME280;31860;45.186;5.790;2024-02-16T12:36:30;99437.63;;;17.88;100.00
46129;BME280;31860;45.186;5.790;2024-02-16T12:38:55;99437.19;;;18.05;100.00
46129;BME280;31860;45.186;5.790;2024-02-16T12:41:21;99432.34;;;18.21;100.00
46129;BME280;31860;45.186;5.790;2024-02-16T12:43:46;99427.38;;;18.41;100.00
46129;BME280;31860;45.186;5.790;2024-02-16T12:46:12;99428.41;;;18.67;100.00